createdAt,value
2019-03-08T08:12:59.021Z,998.93
2019-03-08T08:13:59.192Z,998.91
2019-03-08T08:14:59.331Z,998.93
2019-03-08T08:15:59.602Z,998.94
2019-03-08T08:16:59.759Z,998.96
2019-03-08T08:18:01.056Z,999.04
2019-03-08T08:19:01.303Z,998.99
2019-03-08T08:20:01.414Z,999.06
2019-03-08T08:21:01.665Z,998.96
2019-03-08T08:22:01.803Z,998.98
2019-03-08T08:23:01.959Z,999.08
2019-03-08T08:24:02.085Z,999.09
2019-03-08T08:25:02.212Z,999.11
2019-03-08T08:26:03.341Z,999.09
2019-03-08T08:27:02.609Z,999.15
2019-03-08T08:28:02.724Z,999.16
2019-03-08T08:29:02.899Z,999.17
2019-03-08T08:30:03.038Z,999.24
2019-03-08T08:31:03.209Z,999.21
2019-03-08T08:32:03.381Z,999.31
2019-03-08T08:33:03.672Z,999.16
2019-03-08T08:34:03.766Z,999.27
2019-03-08T08:35:03.961Z,999.31
2019-03-08T08:36:04.114Z,999.28
2019-03-08T08:37:04.309Z,999.33
2019-03-08T08:38:04.510Z,999.27
2019-03-08T08:39:04.687Z,999.27
2019-03-08T08:40:04.865Z,999.36
2019-03-08T08:41:05.014Z,999.30
2019-03-08T08:42:05.201Z,999.37
2019-03-08T08:43:05.401Z,999.37
2019-03-08T08:44:05.567Z,999.41
2019-03-08T08:45:05.761Z,999.50
2019-03-08T08:46:05.923Z,999.54
2019-03-08T08:47:06.106Z,999.48
2019-03-08T08:48:06.265Z,999.48
2019-03-08T08:49:06.427Z,999.48
2019-03-08T08:50:06.569Z,999.53
2019-03-08T08:51:06.694Z,999.62
2019-03-08T08:52:06.856Z,999.57
2019-03-08T08:53:07.008Z,999.62
2019-03-08T08:54:07.176Z,999.58
2019-03-08T08:55:07.349Z,999.64
2019-03-08T08:56:07.448Z,999.61
2019-03-08T08:57:07.747Z,999.53
2019-03-08T08:58:07.877Z,999.60
2019-03-08T08:59:08.136Z,999.65
2019-03-08T09:00:08.305Z,999.49
2019-03-08T09:01:08.474Z,999.40
2019-03-08T09:02:08.714Z,999.38
2019-03-08T09:03:08.995Z,999.41
2019-03-08T09:04:09.103Z,999.39
2019-03-08T09:05:09.243Z,999.44
2019-03-08T09:06:09.436Z,999.50
2019-03-08T09:07:09.548Z,999.52
2019-03-08T09:08:09.695Z,999.58
2019-03-08T09:09:09.879Z,999.58
2019-03-08T09:10:09.989Z,999.64
2019-03-08T09:11:10.180Z,999.72
2019-03-08T09:12:10.316Z,999.80
2019-03-08T09:13:10.536Z,999.74
2019-03-08T09:14:10.699Z,999.83
2019-03-08T09:15:10.870Z,999.95
2019-03-08T09:16:11.035Z,999.82
2019-03-08T09:17:11.293Z,999.83
2019-03-08T09:18:11.463Z,999.69
2019-03-08T09:19:11.629Z,999.67
2019-03-08T09:20:11.812Z,999.69
2019-03-08T09:21:11.994Z,999.80
2019-03-08T09:22:12.211Z,999.85
2019-03-08T09:23:12.366Z,1000.08
2019-03-08T09:24:12.556Z,999.84
2019-03-08T09:25:12.714Z,999.67
2019-03-08T09:26:12.869Z,999.71
2019-03-08T09:27:13.129Z,999.82
2019-03-08T09:28:13.259Z,1000.11
2019-03-08T09:29:13.439Z,999.83
2019-03-08T09:30:13.619Z,999.91
2019-03-08T09:31:13.758Z,1000.03
2019-03-08T09:32:13.957Z,999.91
2019-03-08T09:33:14.162Z,1000.15
2019-03-08T09:34:14.312Z,1000.02
2019-03-08T09:35:14.480Z,999.82
2019-03-08T09:36:14.664Z,999.92
2019-03-08T09:37:14.834Z,1000.01
2019-03-08T09:38:15.005Z,1000.08
2019-03-08T09:39:15.186Z,1000.15
2019-03-08T09:40:15.361Z,1000.11
2019-03-08T09:41:15.481Z,1000.08
2019-03-08T09:42:15.657Z,1000.18
2019-03-08T09:43:15.836Z,1000.27
2019-03-08T09:44:16.003Z,1000.28
2019-03-08T09:45:16.160Z,1000.34
2019-03-08T09:46:17.325Z,1000.37
2019-03-08T09:47:16.460Z,1000.40
2019-03-08T09:48:16.637Z,1000.40
2019-03-08T09:49:16.787Z,1000.49
2019-03-08T09:50:16.936Z,1000.61
2019-03-08T09:51:17.101Z,1000.28
2019-03-08T09:52:17.263Z,1000.24
2019-03-08T09:53:17.470Z,1000.24
2019-03-08T09:54:18.356Z,1000.34
2019-03-08T09:55:18.794Z,1000.45
2019-03-08T09:56:17.960Z,1000.45
2019-03-08T09:57:18.123Z,1000.48
2019-03-08T09:58:18.315Z,1000.50
2019-03-08T09:59:18.465Z,1000.65
2019-03-08T10:00:18.616Z,1000.43
2019-03-08T10:01:18.808Z,1000.49
2019-03-08T10:02:19.001Z,1000.34
2019-03-08T10:03:19.206Z,1000.51
2019-03-08T10:04:19.370Z,1000.58
2019-03-08T10:05:19.552Z,1000.65
2019-03-08T10:06:19.705Z,1000.67
2019-03-08T10:07:19.881Z,1000.63
2019-03-08T10:08:20.021Z,1000.68
2019-03-08T10:09:20.160Z,1000.79
2019-03-08T10:10:20.329Z,1000.74
2019-03-08T10:11:20.496Z,1000.79
2019-03-08T10:12:20.659Z,1000.80
2019-03-08T10:13:20.804Z,1000.84
2019-03-08T10:14:21.049Z,1000.86
2019-03-08T10:15:21.228Z,1000.84
2019-03-08T10:16:21.420Z,1000.89
2019-03-08T10:17:21.598Z,1000.87
2019-03-08T10:18:21.768Z,1000.64
2019-03-08T10:19:21.939Z,1000.67
2019-03-08T10:20:22.111Z,1000.66
2019-03-08T10:21:22.326Z,1000.51
2019-03-08T10:22:22.410Z,1000.33
2019-03-08T10:23:22.617Z,1000.33
2019-03-08T10:24:22.779Z,1000.22
2019-03-08T10:25:22.955Z,1000.24
2019-03-08T10:26:23.173Z,1000.35
2019-03-08T10:27:23.375Z,1000.41
2019-03-08T10:28:23.552Z,1000.41
2019-03-08T10:29:23.716Z,1000.57
2019-03-08T10:30:23.895Z,1000.62
2019-03-08T10:31:24.095Z,1000.67
2019-03-08T10:32:24.273Z,1000.59
2019-03-08T10:33:24.440Z,1000.77
2019-03-08T10:34:24.649Z,1000.74
2019-03-08T10:35:24.824Z,1000.74
2019-03-08T10:36:25.064Z,1000.77
2019-03-08T10:37:25.247Z,1000.85
2019-03-08T10:38:25.474Z,1000.90
2019-03-08T10:39:25.721Z,1000.92
2019-03-08T10:40:25.889Z,1000.92
2019-03-08T10:41:26.175Z,1001.11
2019-03-08T10:42:26.214Z,1000.90
2019-03-08T10:43:26.402Z,1000.65
2019-03-08T10:44:27.596Z,1000.77
2019-03-08T10:45:26.725Z,1000.82
2019-03-08T10:46:26.932Z,1000.68
2019-03-08T10:47:27.094Z,1000.71
2019-03-08T10:48:27.294Z,1000.92
2019-03-08T10:49:27.524Z,1000.98
2019-03-08T10:50:27.730Z,1000.92
2019-03-08T10:51:27.898Z,1001.06
2019-03-08T10:52:29.123Z,1001.08
2019-03-08T10:53:28.280Z,1001.07
2019-03-08T10:54:28.471Z,1001.22
2019-03-08T10:55:28.672Z,1001.24
2019-03-08T10:56:28.883Z,1001.29
2019-03-08T10:57:30.134Z,1001.35
2019-03-08T10:58:29.311Z,1001.40
2019-03-08T10:59:31.356Z,1001.36
2019-03-08T11:00:29.629Z,1001.45
2019-03-08T11:01:29.827Z,1001.47
2019-03-08T11:02:30.034Z,1001.52
2019-03-08T11:03:30.163Z,1001.57
2019-03-08T11:04:30.356Z,1001.57
2019-03-08T11:05:30.543Z,1001.56
2019-03-08T11:06:30.727Z,1001.56
2019-03-08T11:07:30.923Z,1001.64
2019-03-08T11:08:31.116Z,1001.59
2019-03-08T11:09:31.341Z,1001.73
2019-03-08T11:10:31.450Z,1001.73
2019-03-08T11:11:31.677Z,1001.75
2019-03-08T11:12:31.878Z,1001.71
2019-03-08T11:13:32.134Z,1001.66
2019-03-08T11:14:32.245Z,1001.74
2019-03-08T11:15:32.451Z,1001.83
2019-03-08T11:16:32.671Z,1001.78
2019-03-08T11:17:32.877Z,1001.85
2019-03-08T11:18:33.099Z,1001.87
2019-03-08T11:19:33.286Z,1001.82
2019-03-08T11:20:33.481Z,1001.87
2019-03-08T11:21:33.651Z,1001.93
2019-03-08T11:22:34.886Z,1001.93
2019-03-08T11:23:34.080Z,1001.88
2019-03-08T11:24:34.239Z,1001.98
2019-03-08T11:25:35.265Z,1001.97
2019-03-08T11:26:35.667Z,1001.96
2019-03-08T11:27:34.818Z,1001.95
2019-03-08T11:28:35.049Z,1001.95
2019-03-08T11:29:35.257Z,1002.06
2019-03-08T11:30:35.449Z,1002.06
2019-03-08T11:31:35.645Z,1002.03
2019-03-08T11:32:36.870Z,1002.05
2019-03-08T11:33:36.027Z,1002.10
2019-03-08T11:34:36.279Z,1002.02
2019-03-08T11:35:36.680Z,1001.99
2019-03-08T11:36:37.618Z,1002.07
2019-03-08T11:37:36.761Z,1001.93
2019-03-08T11:38:36.947Z,1002.02
2019-03-08T11:39:37.134Z,1002.01
2019-03-08T11:40:37.321Z,1002.01
2019-03-08T11:41:37.537Z,1002.09
2019-03-08T11:42:37.706Z,1002.13
2019-03-08T11:43:37.898Z,1002.22
2019-03-08T11:44:38.085Z,1002.20
2019-03-08T11:45:38.312Z,1002.33
2019-03-08T11:46:38.597Z,1002.50
2019-03-08T11:47:38.631Z,1002.59
2019-03-08T11:48:38.833Z,1002.53
2019-03-08T11:49:39.082Z,1002.52
2019-03-08T11:50:39.212Z,1002.63
2019-03-08T11:51:39.293Z,1002.51
2019-03-08T11:52:39.523Z,1002.49
2019-03-08T11:53:39.729Z,1002.56
2019-03-08T11:54:41.079Z,1002.52
2019-03-08T11:55:41.062Z,1002.58
2019-03-08T11:56:40.194Z,1002.63
2019-03-08T11:57:40.350Z,1002.61
2019-03-08T11:58:40.525Z,1002.56
2019-03-08T11:59:40.730Z,1002.57
2019-03-08T12:00:40.884Z,1002.51
2019-03-08T12:01:41.032Z,1002.49
2019-03-08T12:02:41.215Z,1002.47
2019-03-08T12:03:41.388Z,1002.63
2019-03-08T12:04:41.609Z,1002.58
2019-03-08T12:05:41.786Z,1002.50
2019-03-08T12:06:41.947Z,1002.62
2019-03-08T12:07:42.122Z,1002.59
2019-03-08T12:08:42.283Z,1002.64
2019-03-08T12:09:42.552Z,1002.63
2019-03-08T12:10:42.594Z,1002.64
2019-03-08T12:11:42.775Z,1002.62
2019-03-08T12:12:43.299Z,1002.60
2019-03-08T12:13:43.076Z,1002.53
2019-03-08T12:14:43.278Z,1002.49
2019-03-08T12:15:43.463Z,1002.46
2019-03-08T12:16:43.638Z,1002.64
2019-03-08T12:17:43.769Z,1002.30
2019-03-08T12:18:43.943Z,1002.28
2019-03-08T12:19:44.124Z,1002.24
2019-03-08T12:20:44.353Z,1002.11
2019-03-08T12:21:44.543Z,1002.00
2019-03-08T12:22:44.718Z,1002.09
2019-03-08T12:23:44.909Z,1002.17
2019-03-08T12:24:45.117Z,1001.88
2019-03-08T12:25:45.337Z,1002.26
2019-03-08T12:26:45.541Z,1002.02
2019-03-08T12:27:45.720Z,1001.98
2019-03-08T12:28:45.919Z,1002.28
2019-03-08T12:29:46.109Z,1002.14
2019-03-08T12:30:46.326Z,1002.19
2019-03-08T12:31:46.482Z,1002.07
2019-03-08T12:32:46.683Z,1002.10
2019-03-08T12:33:46.863Z,1001.92
2019-03-08T12:34:47.029Z,1002.04
2019-03-08T12:35:47.245Z,1002.00
2019-03-08T12:36:47.495Z,1002.03
2019-03-08T12:37:47.670Z,1002.04
2019-03-08T12:38:47.880Z,1002.03
2019-03-08T12:39:48.114Z,1001.95
2019-03-08T12:40:48.346Z,1001.95
2019-03-08T12:41:48.520Z,1001.94
2019-03-08T12:42:48.702Z,1001.88
2019-03-08T12:43:48.895Z,1001.94
2019-03-08T12:44:49.118Z,1001.92
2019-03-08T12:45:49.346Z,1001.93
2019-03-08T12:46:49.559Z,1001.87
2019-03-08T12:47:49.759Z,1001.78
2019-03-08T12:48:50.311Z,1001.71
2019-03-08T12:49:51.149Z,1001.72
2019-03-08T12:50:50.334Z,1001.73
2019-03-08T12:51:50.555Z,1001.76
2019-03-08T12:52:50.722Z,1001.79
2019-03-08T12:53:50.907Z,1001.65
2019-03-08T12:54:51.140Z,1001.60
2019-03-08T12:55:51.300Z,1001.81
2019-03-08T12:56:51.500Z,1001.93
2019-03-08T12:57:51.690Z,1001.82
2019-03-08T12:58:51.870Z,1001.91
2019-03-08T12:59:52.048Z,1001.72
2019-03-08T13:00:52.226Z,1001.83
2019-03-08T13:01:52.433Z,1001.95
2019-03-08T13:02:52.657Z,1001.88
2019-03-08T13:03:52.859Z,1001.82
2019-03-08T13:04:53.069Z,1001.81
2019-03-08T13:05:53.321Z,1001.71
2019-03-08T13:06:53.529Z,1001.68
2019-03-08T13:07:53.659Z,1001.81
2019-03-08T13:08:53.842Z,1001.86
2019-03-08T13:09:54.066Z,1001.80
2019-03-08T13:10:54.245Z,1001.86
2019-03-08T13:11:54.431Z,1001.82
2019-03-08T13:12:54.618Z,1001.70
2019-03-08T13:13:54.814Z,1001.77
2019-03-08T13:14:54.981Z,1001.72
2019-03-08T13:15:55.152Z,1001.71
2019-03-08T13:16:55.337Z,1001.70
2019-03-08T13:17:55.556Z,1001.70
2019-03-08T13:18:55.778Z,1001.76
2019-03-08T13:19:55.973Z,1001.83
2019-03-08T13:20:56.174Z,1001.82
2019-03-08T13:21:56.382Z,1001.71
2019-03-08T13:22:56.472Z,1001.77
2019-03-08T13:23:56.656Z,1001.74
2019-03-08T13:24:56.817Z,1001.74
2019-03-08T13:25:57.007Z,1001.75
2019-03-08T13:26:57.168Z,1001.74
2019-03-08T13:27:57.313Z,1001.69
2019-03-08T13:28:57.496Z,1001.72
2019-03-08T13:29:57.725Z,1001.72
2019-03-08T13:30:57.884Z,1001.78
2019-03-08T13:31:58.067Z,1001.64
2019-03-08T13:32:58.243Z,1001.65
2019-03-08T13:33:58.381Z,1001.85
2019-03-08T13:34:58.600Z,1001.82
2019-03-08T13:35:58.815Z,1001.81
2019-03-08T13:36:58.993Z,1001.92
2019-03-08T13:37:59.186Z,1001.98
2019-03-08T13:38:59.365Z,1002.11
2019-03-08T13:39:59.540Z,1002.12
2019-03-08T13:40:59.839Z,1002.14
2019-03-08T13:42:00.006Z,1002.15
2019-03-08T13:43:00.203Z,1002.13
2019-03-08T13:44:00.735Z,1002.15
2019-03-08T13:45:01.616Z,1002.18
2019-03-08T13:46:00.793Z,1002.29
2019-03-08T13:47:01.011Z,1002.30
2019-03-08T13:48:01.211Z,1002.31
2019-03-08T13:49:01.430Z,1002.43
2019-03-08T13:50:01.635Z,1002.48
2019-03-08T13:51:01.865Z,1002.40
2019-03-08T13:52:02.112Z,1002.44
2019-03-08T13:53:02.193Z,1002.48
2019-03-08T13:54:02.386Z,1002.52
2019-03-08T13:55:02.573Z,1002.54
2019-03-08T13:56:02.768Z,1002.49
2019-03-08T13:57:02.984Z,1002.59
2019-03-08T13:58:03.193Z,1002.48
2019-03-08T13:59:03.373Z,1002.53
2019-03-08T14:00:03.560Z,1002.68
2019-03-08T14:01:03.775Z,1002.54
2019-03-08T14:02:03.962Z,1002.55
2019-03-08T14:03:04.183Z,1002.67
2019-03-08T14:04:04.376Z,1002.72
2019-03-08T14:05:04.534Z,1002.73
2019-03-08T14:06:04.660Z,1002.61
2019-03-08T14:07:05.810Z,1002.69
2019-03-08T14:08:05.024Z,1002.61
2019-03-08T14:09:05.196Z,1002.60
2019-03-08T14:10:05.353Z,1002.52
2019-03-08T14:11:05.537Z,1002.49
2019-03-08T14:12:05.689Z,1002.44
2019-03-08T14:13:05.901Z,1002.40
2019-03-08T14:14:06.090Z,1002.41
2019-03-08T14:15:06.236Z,1002.45
2019-03-08T14:16:06.427Z,1002.42
2019-03-08T14:17:06.596Z,1002.44
2019-03-08T14:18:06.830Z,1002.51
2019-03-08T14:19:07.036Z,1002.40
2019-03-08T14:20:07.264Z,1002.32
2019-03-08T14:21:07.439Z,1002.40
2019-03-08T14:22:07.599Z,1002.31
2019-03-08T14:23:07.819Z,1002.35
2019-03-08T14:24:08.046Z,1002.30
2019-03-08T14:25:08.254Z,1002.24
2019-03-08T14:26:08.495Z,1002.19
2019-03-08T14:27:08.575Z,1002.25
2019-03-08T14:28:08.810Z,1002.15
2019-03-08T14:29:09.031Z,1002.15
2019-03-08T14:30:09.222Z,1002.23
2019-03-08T14:31:12.478Z,1002.21
2019-03-08T14:32:09.658Z,1002.27
2019-03-08T14:33:09.838Z,1002.44
2019-03-08T14:34:10.802Z,1002.27
2019-03-08T14:35:12.230Z,1002.37
2019-03-08T14:36:10.376Z,1002.33
2019-03-08T14:37:10.504Z,1002.45
2019-03-08T14:38:10.715Z,1002.40
2019-03-08T14:39:10.915Z,1002.52
2019-03-08T14:40:11.154Z,1002.52
2019-03-08T14:41:11.349Z,1002.49
2019-03-08T14:42:11.602Z,1002.42
2019-03-08T14:43:13.136Z,1002.58
2019-03-08T14:44:12.991Z,1002.63
2019-03-08T14:45:12.146Z,1002.59
2019-03-08T14:46:12.341Z,1002.67
2019-03-08T14:47:12.502Z,1002.72
2019-03-08T14:48:12.658Z,1002.68
2019-03-08T14:49:12.852Z,1002.72
2019-03-08T14:50:13.022Z,1002.70
2019-03-08T14:51:13.849Z,1002.72
2019-03-08T14:52:13.430Z,1002.58
2019-03-08T14:53:13.611Z,1002.68
2019-03-08T14:54:13.761Z,1002.51
2019-03-08T14:55:13.929Z,1002.64
2019-03-08T14:56:14.115Z,1002.66
2019-03-08T14:57:26.390Z,1002.64
2019-03-08T14:58:16.579Z,1002.74
2019-03-08T14:59:15.349Z,1002.69
2019-03-08T15:00:15.866Z,1002.65
2019-03-08T15:01:15.020Z,1002.76
2019-03-08T15:02:15.217Z,1002.73
2019-03-08T15:03:15.379Z,1002.79
2019-03-08T15:04:15.542Z,1002.66
2019-03-08T15:05:19.209Z,1002.65
2019-03-08T15:06:15.878Z,1002.72
2019-03-08T15:07:16.045Z,1002.63
2019-03-08T15:08:17.709Z,1002.76
2019-03-08T15:09:17.340Z,1002.72
2019-03-08T15:10:16.530Z,1002.76
2019-03-08T15:11:16.716Z,1002.79
2019-03-08T15:12:16.954Z,1002.78
2019-03-08T15:13:20.198Z,1002.84
2019-03-08T15:14:18.191Z,1002.94
2019-03-08T15:15:17.347Z,1002.88
2019-03-08T15:16:17.539Z,1002.92
2019-03-08T15:17:17.754Z,1002.93
2019-03-08T15:18:17.907Z,1003.01
2019-03-08T15:19:18.072Z,1002.92
2019-03-08T15:20:18.268Z,1003.02
2019-03-08T15:21:18.484Z,1003.11
2019-03-08T15:22:18.636Z,1002.92
2019-03-08T15:23:18.806Z,1003.03
2019-03-08T15:24:18.979Z,1002.94
2019-03-08T15:25:20.162Z,1002.92
2019-03-08T15:26:19.357Z,1002.90
2019-03-08T15:27:19.477Z,1002.94
2019-03-08T15:28:19.642Z,1002.94
2019-03-08T15:29:19.831Z,1002.94
2019-03-08T15:30:20.018Z,1002.94
2019-03-08T15:31:20.224Z,1002.96
2019-03-08T15:32:20.399Z,1002.99
2019-03-08T15:33:20.564Z,1003.11
2019-03-08T15:34:21.428Z,1003.09
2019-03-08T15:35:21.959Z,1003.12
2019-03-08T15:36:21.117Z,1003.08
2019-03-08T15:37:21.304Z,1003.15
2019-03-08T15:38:21.505Z,1003.09
2019-03-08T15:39:21.721Z,1003.02
2019-03-08T15:40:21.899Z,1003.05
2019-03-08T15:41:24.984Z,1002.99
2019-03-08T15:42:22.325Z,1003.08
2019-03-08T15:43:22.505Z,1003.12
2019-03-08T15:44:24.463Z,1003.08
2019-03-08T15:45:24.865Z,1003.13
2019-03-08T15:46:23.450Z,1003.12
2019-03-08T15:47:23.987Z,1003.08
2019-03-08T15:48:24.450Z,1003.06
2019-03-08T15:49:26.666Z,1003.03
2019-03-08T15:50:24.634Z,1002.97
2019-03-08T15:51:25.267Z,1002.97
2019-03-08T15:52:24.938Z,1002.99
2019-03-08T15:53:24.130Z,1002.92
2019-03-08T15:54:24.285Z,1002.92
2019-03-08T15:55:24.424Z,1002.97
2019-03-08T15:56:24.601Z,1002.98
2019-03-08T15:57:24.812Z,1003.00
2019-03-08T15:58:25.024Z,1003.04
2019-03-08T15:59:25.234Z,1003.13
2019-03-08T16:00:25.412Z,1003.09
2019-03-08T16:01:25.610Z,1003.13
2019-03-08T16:02:25.781Z,1003.17
2019-03-08T16:03:25.947Z,1003.12
2019-03-08T16:04:26.147Z,1003.09
2019-03-08T16:05:28.220Z,1003.09
2019-03-08T16:06:27.453Z,1003.14
2019-03-08T16:07:27.275Z,1003.12
2019-03-08T16:08:27.724Z,1003.28
2019-03-08T16:09:26.958Z,1003.23
2019-03-08T16:10:28.098Z,1003.22
2019-03-08T16:11:27.221Z,1003.32
2019-03-08T16:12:27.378Z,1003.23
2019-03-08T16:13:27.502Z,1003.17
2019-03-08T16:14:27.786Z,1003.17
2019-03-08T16:15:27.914Z,1003.21
2019-03-08T16:16:28.068Z,1003.24
2019-03-08T16:17:28.216Z,1003.24
2019-03-08T16:18:28.466Z,1003.24
2019-03-08T16:19:28.633Z,1003.17
2019-03-08T16:20:28.767Z,1003.13
2019-03-08T16:21:29.027Z,1003.11
2019-03-08T16:22:30.162Z,1003.09
2019-03-08T16:23:29.314Z,1003.10
2019-03-08T16:24:31.218Z,1003.05
2019-03-08T16:25:30.619Z,1003.15
2019-03-08T16:26:29.878Z,1003.15
2019-03-08T16:27:30.008Z,1003.09
2019-03-08T16:28:30.128Z,1003.14
2019-03-08T16:29:30.254Z,1003.15
2019-03-08T16:30:30.481Z,1003.05
2019-03-08T16:31:30.683Z,1003.11
2019-03-08T16:32:30.884Z,1003.01
2019-03-08T16:33:31.014Z,1003.13
2019-03-08T16:34:31.147Z,1003.08
2019-03-08T16:35:32.067Z,1003.09
2019-03-08T16:36:31.491Z,1003.08
2019-03-08T16:37:31.595Z,1003.04
2019-03-08T16:38:32.762Z,1002.99
2019-03-08T16:39:31.925Z,1003.01
2019-03-08T16:40:32.106Z,1002.98
2019-03-08T16:41:32.263Z,1002.86
2019-03-08T16:42:32.426Z,1002.99
2019-03-08T16:43:32.588Z,1002.95
2019-03-08T16:44:33.756Z,1003.00
2019-03-08T16:45:32.879Z,1002.98
2019-03-08T16:46:33.032Z,1002.91
2019-03-08T16:47:33.292Z,1002.97
2019-03-08T16:48:33.451Z,1002.98
2019-03-08T16:49:33.577Z,1002.96
2019-03-08T16:50:33.702Z,1003.03
2019-03-08T16:51:34.490Z,1003.02
2019-03-08T16:52:35.163Z,1003.00
2019-03-08T16:53:34.248Z,1002.98
2019-03-08T16:54:34.486Z,1003.03
2019-03-08T16:55:34.637Z,1002.99
2019-03-08T16:56:34.759Z,1002.94
2019-03-08T16:57:34.895Z,1002.97
2019-03-08T16:58:35.017Z,1002.95
2019-03-08T16:59:35.141Z,1002.96
2019-03-08T17:00:35.416Z,1002.93
2019-03-08T17:01:35.536Z,1002.98
2019-03-08T17:02:35.667Z,1002.95
2019-03-08T17:03:35.809Z,1002.92
2019-03-08T17:04:35.940Z,1002.98
2019-03-08T17:05:36.166Z,1002.99
2019-03-08T17:06:36.352Z,1003.00
2019-03-08T17:07:36.509Z,1002.95
2019-03-08T17:08:36.633Z,1002.93
2019-03-08T17:09:36.793Z,1002.95
2019-03-08T17:10:36.986Z,1002.94
2019-03-08T17:11:37.185Z,1002.93
2019-03-08T17:12:37.329Z,1002.86
2019-03-08T17:13:37.476Z,1002.87
2019-03-08T17:14:37.609Z,1002.91
2019-03-08T17:15:37.782Z,1002.88
2019-03-08T17:16:37.982Z,1002.80
2019-03-08T17:17:38.139Z,1002.91
2019-03-08T17:18:38.309Z,1002.81
2019-03-08T17:19:38.497Z,1002.84
2019-03-08T17:20:38.662Z,1002.86
2019-03-08T17:21:38.867Z,1002.93
2019-03-08T17:22:40.564Z,1002.91
2019-03-08T17:23:39.202Z,1002.91
2019-03-08T17:24:39.385Z,1002.88
2019-03-08T17:25:39.594Z,1002.92
2019-03-08T17:26:39.769Z,1002.92
2019-03-08T17:27:40.047Z,1002.90
2019-03-08T17:28:41.107Z,1002.94
2019-03-08T17:29:40.254Z,1002.94
2019-03-08T17:30:40.446Z,1002.93
2019-03-08T17:31:40.571Z,1002.90
2019-03-08T17:32:40.733Z,1002.93
2019-03-08T17:33:40.915Z,1002.88
2019-03-08T17:34:41.090Z,1002.89
2019-03-08T17:35:41.276Z,1002.87
2019-03-08T17:36:41.470Z,1002.87
2019-03-08T17:37:41.669Z,1002.93
2019-03-08T17:38:41.889Z,1002.86
2019-03-08T17:39:42.041Z,1002.93
2019-03-08T17:40:42.279Z,1002.88
2019-03-08T17:41:42.409Z,1002.91
2019-03-08T17:42:42.577Z,1002.95
2019-03-08T17:43:42.748Z,1002.93
2019-03-08T17:44:42.900Z,1002.86
2019-03-08T17:45:43.030Z,1002.96
2019-03-08T17:46:43.207Z,1002.93
2019-03-08T17:47:43.363Z,1002.95
2019-03-08T17:48:43.573Z,1002.96
2019-03-08T17:49:43.731Z,1003.07
2019-03-08T17:50:43.911Z,1002.97
2019-03-08T17:51:44.090Z,1003.04
2019-03-08T17:52:44.245Z,1003.02
2019-03-08T17:53:44.425Z,1003.03
2019-03-08T17:54:44.626Z,1003.05
2019-03-08T17:55:44.790Z,1003.05
2019-03-08T17:56:44.941Z,1003.07
2019-03-08T17:57:45.105Z,1003.07
2019-03-08T17:58:45.289Z,1003.05
2019-03-08T17:59:45.437Z,1003.11
2019-03-08T18:00:45.609Z,1003.09
2019-03-08T18:01:45.774Z,1003.14
2019-03-08T18:02:45.963Z,1003.07
2019-03-08T18:03:46.166Z,1003.11
2019-03-08T18:04:46.339Z,1003.12
2019-03-08T18:05:46.506Z,1003.12
2019-03-08T18:06:46.728Z,1003.11
2019-03-08T18:07:46.936Z,1003.08
2019-03-08T18:08:47.137Z,1003.12
2019-03-08T18:09:47.342Z,1003.14
2019-03-08T18:10:47.531Z,1003.08
2019-03-08T18:11:47.722Z,1003.11
2019-03-08T18:12:47.879Z,1003.04
2019-03-08T18:13:48.054Z,1003.10
2019-03-08T18:14:48.263Z,1003.02
2019-03-08T18:15:48.439Z,1003.12
2019-03-08T18:16:48.617Z,1003.08
2019-03-08T18:17:48.805Z,1003.03
2019-03-08T18:18:48.993Z,1003.05
2019-03-08T18:19:49.188Z,1003.05
2019-03-08T18:20:49.362Z,1003.07
2019-03-08T18:21:49.536Z,1003.02
2019-03-08T18:22:49.718Z,1003.11
2019-03-08T18:23:49.886Z,1003.09
2019-03-08T18:24:50.130Z,1003.07
2019-03-08T18:25:50.350Z,1003.05
2019-03-08T18:26:50.560Z,1003.07
2019-03-08T18:27:50.743Z,1003.02
2019-03-08T18:28:50.903Z,1003.05
2019-03-08T18:29:51.053Z,1003.06
2019-03-08T18:30:51.278Z,1003.13
2019-03-08T18:31:51.454Z,1003.12
2019-03-08T18:32:51.607Z,1003.12
2019-03-08T18:33:51.768Z,1003.14
2019-03-08T18:34:51.935Z,1003.11
2019-03-08T18:35:52.155Z,1003.13
2019-03-08T18:36:52.238Z,1003.15
2019-03-08T18:37:52.387Z,1003.23
2019-03-08T18:38:52.570Z,1003.15
2019-03-08T18:39:52.781Z,1003.12
2019-03-08T18:40:52.917Z,1003.16
2019-03-08T18:41:53.130Z,1003.21
2019-03-08T18:42:53.277Z,1003.17
2019-03-08T18:43:53.432Z,1003.15
2019-03-08T18:44:53.595Z,1003.15
2019-03-08T18:45:53.749Z,1003.25
2019-03-08T18:46:53.950Z,1003.27
2019-03-08T18:47:54.104Z,1003.15
2019-03-08T18:48:54.291Z,1003.13
2019-03-08T18:49:54.433Z,1003.16
2019-03-08T18:50:54.623Z,1003.17
2019-03-08T18:51:54.812Z,1003.16
2019-03-08T18:52:54.976Z,1003.15
2019-03-08T18:53:55.106Z,1003.16
2019-03-08T18:54:55.271Z,1003.11
2019-03-08T18:55:55.446Z,1003.14
2019-03-08T18:56:55.628Z,1003.12
2019-03-08T18:57:55.823Z,1003.06
2019-03-08T18:58:55.978Z,1003.22
2019-03-08T18:59:56.213Z,1003.16
2019-03-08T19:00:56.388Z,1003.20
2019-03-08T19:01:56.579Z,1003.08
2019-03-08T19:02:56.771Z,1003.14
2019-03-08T19:03:56.921Z,1003.09
2019-03-08T19:04:57.104Z,1003.14
2019-03-08T19:05:57.290Z,1003.13
2019-03-08T19:06:57.480Z,1003.02
2019-03-08T19:07:57.682Z,1003.10
2019-03-08T19:08:57.799Z,1003.14
2019-03-08T19:09:57.988Z,1003.06
2019-03-08T19:10:58.158Z,1003.10
2019-03-08T19:11:58.324Z,1003.11
2019-03-08T19:12:58.523Z,1003.09
2019-03-08T19:13:58.714Z,1003.15
2019-03-08T19:14:59.890Z,1003.14
2019-03-08T19:15:59.065Z,1003.13
2019-03-08T19:16:59.248Z,1003.13
2019-03-08T19:17:59.420Z,1003.16
2019-03-08T19:18:59.615Z,1003.11
2019-03-08T19:19:59.784Z,1003.10
2019-03-08T19:20:59.956Z,1003.18
2019-03-08T19:22:00.102Z,1003.12
2019-03-08T19:23:00.361Z,1003.15
2019-03-08T19:24:00.551Z,1003.12
2019-03-08T19:25:00.709Z,1003.12
2019-03-08T19:26:00.940Z,1003.13
2019-03-08T19:27:01.135Z,1003.11
2019-03-08T19:28:01.314Z,1003.11
2019-03-08T19:29:01.491Z,1003.10
2019-03-08T19:30:01.713Z,1003.08
2019-03-08T19:31:01.871Z,1003.21
2019-03-08T19:32:02.071Z,1003.10
2019-03-08T19:33:02.276Z,1003.10
2019-03-08T19:34:02.454Z,1003.11
2019-03-08T19:35:02.727Z,1003.08
2019-03-08T19:36:02.896Z,1003.10
2019-03-08T19:37:03.045Z,1003.09
2019-03-08T19:38:03.239Z,1003.10
2019-03-08T19:39:03.412Z,1003.08
2019-03-08T19:40:03.600Z,1003.10
2019-03-08T19:41:03.799Z,1003.11
2019-03-08T19:42:03.973Z,1003.12
2019-03-08T19:43:04.154Z,1003.10
2019-03-08T19:44:04.290Z,1003.04
2019-03-08T19:45:04.448Z,1003.02
2019-03-08T19:46:04.631Z,1003.07
2019-03-08T19:47:05.155Z,1003.06
2019-03-08T19:48:04.928Z,1003.04
2019-03-08T19:49:05.106Z,1003.04
2019-03-08T19:50:06.433Z,1003.07
2019-03-08T19:51:05.481Z,1003.05
2019-03-08T19:52:05.645Z,1002.95
2019-03-08T19:53:05.897Z,1002.92
2019-03-08T19:54:06.106Z,1002.93
2019-03-08T19:55:06.300Z,1002.94
2019-03-08T19:56:06.436Z,1002.93
2019-03-08T19:57:06.611Z,1002.90
2019-03-08T19:58:06.788Z,1002.91
2019-03-08T19:59:07.961Z,1002.93
2019-03-08T20:00:07.113Z,1002.90
2019-03-08T20:01:07.290Z,1003.01
2019-03-08T20:02:07.439Z,1002.89
2019-03-08T20:03:07.630Z,1002.85
2019-03-08T20:04:07.802Z,1002.87
2019-03-08T20:05:07.957Z,1002.85
2019-03-08T20:06:08.112Z,1002.84
2019-03-08T20:07:08.269Z,1002.77
2019-03-08T20:08:08.456Z,1002.78
2019-03-08T20:09:08.582Z,1002.80
2019-03-08T20:10:08.757Z,1002.83
2019-03-08T20:11:08.898Z,1002.79
2019-03-08T20:12:09.059Z,1002.73
2019-03-08T20:13:09.243Z,1002.76
2019-03-08T20:14:09.408Z,1002.78
2019-03-08T20:15:09.559Z,1002.79
2019-03-08T20:16:10.714Z,1002.80
2019-03-08T20:17:09.878Z,1002.80
2019-03-08T20:18:10.120Z,1002.73
2019-03-08T20:19:10.205Z,1002.79
2019-03-08T20:20:10.372Z,1002.82
2019-03-08T20:21:10.558Z,1002.68
2019-03-08T20:22:10.739Z,1002.71
2019-03-08T20:23:11.046Z,1002.74